IDs: Format: Raw Decoded Include TAF

Data at: 2030 UTC 17 Mar 2018

METAR for:K42J (Keystone Airpark, FL, US)
Text:K42J 172015Z AUTO 27010G15KT 10SM CLR 27/03 A2998 RMK AO1 TSNO
Temperature: 27.0°C ( 81°F)
Dewpoint: 3.0°C ( 37°F) [RH = 21%]
Pressure (altimeter):29.98 inches Hg (1015.3 mb)
Winds:from the W (270 degrees) at 12 MPH (10 knots; 5.1 m/s) gusting to 17 MPH (15 knots; 7.7 m/s)
Visibility:10 or more sm (16+ km)
Ceiling:at least 12,000 feet AGL
Clouds:sky clear below 12,000 feet AGL
QC Flag:automated observation with no human augmentation